Pagrindinis puslapis
METAR-TAF:

METAR-TAF

Oro uostai :

Ušuaja, Argentina

platuma: 54-48S, ilguma: 068-19W, Aukštis: 16 m

Dabartinis oras

Ataskaita buvo paskelbta 52 minutes, ne 23:00 UTC
Vėjas 13 kt iš Šiaurės Rytų
Temperatūra 4°C
Drėgmė 65%
Slėgis 991 hPa
Matomumas 10 km arba daugiau
Išsisklaidę debesys ne aukštis 3500 ft
Su prošvaistėmis ne aukštis 8000 ft
Liūtis kaimynystėje

METAR: SAWH 022300Z 04013KT 9999 VCSH SCT035 BKN080 04/M02 Q0991 RMK PP000

Laikas: 20:52 (23:52 UTC)

Prognozė

Ataskaita buvo paskelbta 6 valandos ir 52 minutes, ne 17:00 UTC
Prognozė galioja nuo 02 metu 18 UTC su 03 metu 18 UTC
Vėjas 15 kt iš Šiaurės/Šiaurės Rytų su gūsio iki 25 kt
Matomumas 10 km arba daugiau
Išsisklaidę debesys ne aukštis 3000 ft
Su prošvaistėmis ne aukštis 7000 ft
Tapsmas
nuo 02 metu 22 UTC su 02 metu 24 UTC
Vėjas 3 kt nuo kintamojo kryptimis
Su prošvaistėmis ne aukštis 2000 ft
lietus, sniegas

TAF: SAWH 021700Z 0218/0318 02015G25KT 9999 SCT030 BKN070 TX04/0219Z TN02/0310Z BECMG 0222/0224 VRB03KT -RASN BKN020

Orai ataskaitas ir orų prognozės (METAR, TAF).

turimą stotys yra geltonos ir raudonos taškus žemėlapyje.

Perkelti pele per norėdami pamatyti stoties vardą.

Tada spustelėkite, norėdami matyti oro stebėjimo ir prognozės.

Norėdami pakeisti žemėlapį: spustelėkite ant žalios mygtukų su juodo kryžiaus žemyn,; žalią mygtuką su brūkšneliu, jei norite nutolinti; arba žalių rodyklių gretimoms žemėlapius.


METAR-TAF: